Time,TemperatureF,DewpointF,PressureIn,WindDirection,WindDirectionDegrees,WindSpeedMPH,WindSpeedGustMPH,Humidity,HourlyPrecipIn,Conditions,Clouds,dailyrainin,SoftwareType,DateUTC
2013-01-21 10:56:00,38.1,17.8,30.01,SSW,200,2.7,5.1,43,0.00,n/a,n/a,-99.99,Henriksen +1-Wire,2013-01-21 15:56:00,
2013-01-21 11:08:00,38.5,18.1,30.01,SSW,196,6.2,11.7,43,0.00,n/a,n/a,-99.99,Henriksen +1-Wire,2013-01-21 16:08:00,
2013-01-21 11:10:00,34.5,14.0,30.00,SSW,199,4.3,11.7,42,0.00,n/a,n/a,-99.99,Henriksen +1-Wire,2013-01-21 16:10:00,
2013-01-21 11:14:00,29.3,9.3,30.00,SSW,192,5.8,11.7,42,0.00,n/a,n/a,-99.99,Henriksen +1-Wire,2013-01-21 16:14:00,
2013-01-21 11:20:00,26.9,6.8,30.00,South,191,5.4,9.1,42,0.00,n/a,n/a,-99.99,Henriksen +1-Wire,2013-01-21 16:20:00,
2013-01-21 12:20:00,39.1,17.5,29.96,SW,236,3.4,4.7,41,0.00,n/a,n/a,-99.99,Henriksen +1-Wire,2013-01-21 17:20:00,
2013-01-21 12:26:00,30.2,10.5,29.95,SSW,212,3.9,6.3,43,0.00,n/a,n/a,-99.99,Henriksen +1-Wire,2013-01-21 17:26:00,
2013-01-21 12:32:00,28.1,8.3,29.95,SSW,205,3.8,7.4,43,0.00,n/a,n/a,-99.99,Henriksen +1-Wire,2013-01-21 17:32:00,
2013-01-21 12:38:00,27.7,7.4,29.95,SSW,193,6.7,10.0,41,0.00,n/a,n/a,-99.99,Henriksen +1-Wire,2013-01-21 17:38:00,
2013-01-21 12:44:00,26.9,6.5,29.95,SSE,158,5.7,10.0,41,0.00,n/a,n/a,-99.99,Henriksen +1-Wire,2013-01-21 17:44:00,
2013-01-21 12:50:00,26.7,-3.2,29.95,SSE,162,5.7,10.0,26,0.00,n/a,n/a,-99.99,Henriksen +1-Wire,2013-01-21 17:50:00,
2013-01-21 12:56:00,26.8,5.3,29.94,SSW,194,4.7,10.0,39,0.00,n/a,n/a,-99.99,Henriksen +1-Wire,2013-01-21 17:56:00,
2013-01-21 13:02:00,27.0,6.4,29.94,ESE,120,3.7,10.9,41,0.00,n/a,n/a,-99.99,Henriksen +1-Wire,2013-01-21 18:02:00,
2013-01-21 13:08:00,27.4,6.6,29.95,ESE,120,4.6,6.8,40,0.00,n/a,n/a,-99.99,Henriksen +1-Wire,2013-01-21 18:08:00,
2013-01-21 13:14:00,26.9,6.1,29.94,SSW,197,4.1,7.1,40,0.00,n/a,n/a,-99.99,Henriksen +1-Wire,2013-01-21 18:14:00,
2013-01-21 13:20:00,27.8,7.2,29.94,South,184,3.7,8.8,41,0.00,n/a,n/a,-99.99,Henriksen +1-Wire,2013-01-21 18:20:00,
2013-01-21 13:26:00,27.7,7.6,29.93,SSW,196,4.0,8.8,42,0.00,n/a,n/a,-99.99,Henriksen +1-Wire,2013-01-21 18:26:00,
2013-01-21 13:32:00,28.0,8.0,29.93,SSW,197,3.8,6.7,42,0.00,n/a,n/a,-99.99,Henriksen +1-Wire,2013-01-21 18:32:00,
2013-01-21 13:38:00,27.0,6.6,29.93,South,190,6.4,10.5,41,0.00,n/a,n/a,-99.99,Henriksen +1-Wire,2013-01-21 18:38:00,
2013-01-21 13:44:00,26.7,6.4,29.93,South,179,6.1,10.7,41,0.00,n/a,n/a,-99.99,Henriksen +1-Wire,2013-01-21 18:44:00,
2013-01-21 13:50:00,26.7,6.2,29.93,SSE,162,3.4,8.1,41,0.00,n/a,n/a,-99.99,Henriksen +1-Wire,2013-01-21 18:50:00,
2013-01-21 13:56:00,27.0,6.7,29.93,South,184,3.7,6.1,41,0.00,n/a,n/a,-99.99,Henriksen +1-Wire,2013-01-21 18:56:00,
2013-01-21 14:02:00,26.7,6.0,29.93,South,188,3.3,6.9,41,0.00,n/a,n/a,-99.99,Henriksen +1-Wire,2013-01-21 19:02:00,
2013-01-21 14:08:00,27.0,6.4,29.93,SSW,194,4.7,6.9,41,0.00,n/a,n/a,-99.99,Henriksen +1-Wire,2013-01-21 19:08:00,
2013-01-21 14:14:00,26.7,5.9,29.92,SSE,160,6.2,9.0,40,0.00,n/a,n/a,-99.99,Henriksen +1-Wire,2013-01-21 19:14:00,
2013-01-21 14:20:00,26.8,6.1,29.93,South,176,3.6,9.0,41,0.00,n/a,n/a,-99.99,Henriksen +1-Wire,2013-01-21 19:20:00,
2013-01-21 14:26:00,27.0,6.5,29.92,South,189,3.4,5.5,41,0.00,n/a,n/a,-99.99,Henriksen +1-Wire,2013-01-21 19:26:00,
2013-01-21 14:32:00,27.9,7.8,29.92,South,187,3.8,5.4,42,0.00,n/a,n/a,-99.99,Henriksen +1-Wire,2013-01-21 19:32:00,
2013-01-21 14:38:00,27.7,7.1,29.92,SSE,163,3.2,6.2,41,0.00,n/a,n/a,-99.99,Henriksen +1-Wire,2013-01-21 19:38:00,
2013-01-21 14:44:00,27.3,7.0,29.92,South,191,4.8,9.6,41,0.00,n/a,n/a,-99.99,Henriksen +1-Wire,2013-01-21 19:44:00,
2013-01-21 14:50:00,27.3,7.2,29.92,SSW,200,2.9,9.6,42,0.00,n/a,n/a,-99.99,Henriksen +1-Wire,2013-01-21 19:50:00,
2013-01-21 14:56:00,27.4,7.1,29.92,SSW,204,3.1,6.5,41,0.00,n/a,n/a,-99.99,Henriksen +1-Wire,2013-01-21 19:56:00,
2013-01-21 15:02:00,28.2,8.4,29.92,South,183,3.0,6.5,43,0.00,n/a,n/a,-99.99,Henriksen +1-Wire,2013-01-21 20:02:00,
2013-01-21 15:08:00,28.9,9.4,29.91,South,188,2.6,5.4,43,0.00,n/a,n/a,-99.99,Henriksen +1-Wire,2013-01-21 20:08:00,
2013-01-21 15:14:00,28.9,8.8,29.91,South,180,4.3,7.0,42,0.00,n/a,n/a,-99.99,Henriksen +1-Wire,2013-01-21 20:14:00,
2013-01-21 15:20:00,29.0,9.2,29.91,South,186,4.0,7.0,43,0.00,n/a,n/a,-99.99,Henriksen +1-Wire,2013-01-21 20:20:00,
2013-01-21 15:26:00,28.9,8.8,29.90,SSE,154,3.1,6.1,42,0.00,n/a,n/a,-99.99,Henriksen +1-Wire,2013-01-21 20:26:00,
2013-01-21 15:32:00,27.3,7.8,29.90,SW,222,2.2,6.7,43,0.00,n/a,n/a,-99.99,Henriksen +1-Wire,2013-01-21 20:32:00,
2013-01-21 15:38:00,27.0,7.5,29.90,SSW,200,3.2,6.7,43,0.00,n/a,n/a,-99.99,Henriksen +1-Wire,2013-01-21 20:38:00,
2013-01-21 15:44:00,26.8,7.2,29.91,South,174,4.5,6.0,43,0.00,n/a,n/a,-99.99,Henriksen +1-Wire,2013-01-21 20:44:00,
2013-01-21 15:50:00,26.8,7.4,29.90,SSE,161,2.5,6.2,43,0.00,n/a,n/a,-99.99,Henriksen +1-Wire,2013-01-21 20:50:00,
2013-01-21 15:56:00,26.9,7.6,29.90,SSE,162,3.1,5.9,43,0.00,n/a,n/a,-99.99,Henriksen +1-Wire,2013-01-21 20:56:00,
2013-01-21 16:02:00,26.8,7.9,29.90,SE,138,4.1,8.3,44,0.00,n/a,n/a,-99.99,Henriksen +1-Wire,2013-01-21 21:02:00,
2013-01-21 16:08:00,26.6,8.3,29.90,SE,126,4.8,8.3,45,0.00,n/a,n/a,-99.99,Henriksen +1-Wire,2013-01-21 21:08:00,
2013-01-21 16:14:00,26.4,8.9,29.90,SSE,157,3.8,8.1,47,0.00,n/a,n/a,-99.99,Henriksen +1-Wire,2013-01-21 21:14:00,
2013-01-21 16:20:00,26.3,9.8,29.89,SSE,167,3.8,7.0,49,0.00,n/a,n/a,-99.99,Henriksen +1-Wire,2013-01-21 21:20:00,
2013-01-21 16:26:00,27.4,11.2,29.89,South,190,3.2,7.0,50,0.00,n/a,n/a,-99.99,Henriksen +1-Wire,2013-01-21 21:26:00,
2013-01-21 16:32:00,27.7,11.7,29.89,South,189,3.9,7.7,50,0.00,n/a,n/a,-99.99,Henriksen +1-Wire,2013-01-21 21:32:00,
2013-01-21 16:38:00,27.7,11.9,29.89,SSE,167,2.7,6.6,51,0.00,n/a,n/a,-99.99,Henriksen +1-Wire,2013-01-21 21:38:00,
2013-01-21 16:44:00,27.8,11.8,29.90,SSE,164,5.2,6.7,50,0.00,n/a,n/a,-99.99,Henriksen +1-Wire,2013-01-21 21:44:00,
2013-01-21 16:50:00,27.8,11.8,29.90,South,189,4.0,7.5,50,0.00,n/a,n/a,-99.99,Henriksen +1-Wire,2013-01-21 21:50:00,
2013-01-21 16:56:00,27.8,11.4,29.90,SE,144,3.3,6.7,50,0.00,n/a,n/a,-99.99,Henriksen +1-Wire,2013-01-21 21:56:00,
2013-01-21 17:02:00,27.7,11.9,29.90,SSE,167,4.6,6.4,51,0.00,n/a,n/a,-99.99,Henriksen +1-Wire,2013-01-21 22:02:00,
2013-01-21 17:08:00,27.6,12.1,29.89,SSE,163,4.3,6.9,51,0.00,n/a,n/a,-99.99,Henriksen +1-Wire,2013-01-21 22:08:00,
2013-01-21 17:14:00,27.4,12.4,29.90,SSE,163,4.5,6.9,52,0.00,n/a,n/a,-99.99,Henriksen +1-Wire,2013-01-21 22:14:00,
2013-01-21 17:20:00,27.3,12.7,29.89,SSE,163,3.6,7.4,53,0.00,n/a,n/a,-99.99,Henriksen +1-Wire,2013-01-21 22:20:00,
2013-01-21 17:26:00,27.2,13.2,29.90,South,190,4.4,8.2,55,0.00,n/a,n/a,-99.99,Henriksen +1-Wire,2013-01-21 22:26:00,
2013-01-21 17:32:00,26.9,13.4,29.90,SSW,198,3.1,8.2,56,0.00,n/a,n/a,-99.99,Henriksen +1-Wire,2013-01-21 22:32:00,
2013-01-21 17:38:00,25.8,12.8,29.90,SSW,207,4.1,6.1,57,0.00,n/a,n/a,-99.99,Henriksen +1-Wire,2013-01-21 22:38:00,
2013-01-21 17:44:00,25.1,12.7,29.90,South,184,5.1,8.9,59,0.00,n/a,n/a,-99.99,Henriksen +1-Wire,2013-01-21 22:44:00,
2013-01-21 17:50:00,24.8,13.1,29.89,South,191,4.3,8.9,60,0.00,n/a,n/a,-99.99,Henriksen +1-Wire,2013-01-21 22:50:00,
2013-01-21 17:56:00,24.7,13.9,29.90,SSW,202,3.2,7.7,63,0.00,n/a,n/a,-99.99,Henriksen +1-Wire,2013-01-21 22:56:00,
2013-01-21 18:02:00,24.8,14.6,29.90,South,172,3.8,7.0,64,0.00,n/a,n/a,-99.99,Henriksen +1-Wire,2013-01-21 23:02:00,
2013-01-21 18:08:00,25.6,16.1,29.90,South,178,3.8,6.4,66,0.00,n/a,n/a,-99.99,Henriksen +1-Wire,2013-01-21 23:08:00,
2013-01-21 18:14:00,25.7,17.1,29.90,South,189,3.6,5.8,69,0.00,n/a,n/a,-99.99,Henriksen +1-Wire,2013-01-21 23:14:00,
2013-01-21 18:20:00,25.6,18.2,29.90,South,182,2.6,4.8,73,0.00,n/a,n/a,-99.99,Henriksen +1-Wire,2013-01-21 23:20:00,
2013-01-21 18:26:00,24.8,18.4,29.90,SSE,162,2.5,5.4,76,0.00,n/a,n/a,-99.99,Henriksen +1-Wire,2013-01-21 23:26:00,
2013-01-21 18:32:00,23.6,18.1,29.90,SE,132,2.8,4.6,79,0.00,n/a,n/a,-99.99,Henriksen +1-Wire,2013-01-21 23:32:00,
2013-01-21 18:38:00,23.2,18.2,29.90,SE,146,1.9,4.0,81,0.00,n/a,n/a,-99.99,Henriksen +1-Wire,2013-01-21 23:38:00,
2013-01-21 18:44:00,23.2,18.5,29.90,SSE,151,1.1,2.9,82,0.00,n/a,n/a,-99.99,Henriksen +1-Wire,2013-01-21 23:44:00,
2013-01-21 18:50:00,23.2,18.8,29.90,SE,126,0.9,2.2,83,0.00,n/a,n/a,-99.99,Henriksen +1-Wire,2013-01-21 23:50:00,
2013-01-21 18:56:00,23.1,19.0,29.90,South,190,1.1,1.9,83,0.00,n/a,n/a,-99.99,Henriksen +1-Wire,2013-01-21 23:56:00,
2013-01-21 19:02:00,23.0,18.9,29.90,SSW,198,1.4,2.6,84,0.00,n/a,n/a,-99.99,Henriksen +1-Wire,2013-01-22 00:02:00,
2013-01-21 19:08:00,22.9,19.1,29.90,SSW,192,1.0,2.6,85,0.00,n/a,n/a,-99.99,Henriksen +1-Wire,2013-01-22 00:08:00,
2013-01-21 19:14:00,22.9,19.2,29.89,SE,134,0.5,1.6,85,0.00,n/a,n/a,-99.99,Henriksen +1-Wire,2013-01-22 00:14:00,
2013-01-21 19:20:00,22.8,19.1,29.89,South,182,0.0,1.6,85,0.00,n/a,n/a,-99.99,Henriksen +1-Wire,2013-01-22 00:20:00,
2013-01-21 19:26:00,22.8,19.0,29.88,ENE,74,0.0,0.7,85,0.00,n/a,n/a,-99.99,Henriksen +1-Wire,2013-01-22 00:26:00,
2013-01-21 19:32:00,23.0,19.3,29.89,ENE,72,0.0,0.0,85,0.00,n/a,n/a,-99.99,Henriksen +1-Wire,2013-01-22 00:32:00,
2013-01-21 19:38:00,23.0,19.5,29.88,ENE,64,0.0,0.0,86,0.00,n/a,n/a,-99.99,Henriksen +1-Wire,2013-01-22 00:38:00,
2013-01-21 19:44:00,23.0,19.6,29.88,ENE,68,0.0,0.0,86,0.00,n/a,n/a,-99.99,Henriksen +1-Wire,2013-01-22 00:44:00,
2013-01-21 19:50:00,23.0,19.5,29.88,ENE,69,0.0,0.0,86,0.00,n/a,n/a,-99.99,Henriksen +1-Wire,2013-01-22 00:50:00,
2013-01-21 19:56:00,22.9,19.5,29.88,East,86,0.0,0.0,86,0.00,n/a,n/a,-99.99,Henriksen +1-Wire,2013-01-22 00:56:00,
2013-01-21 20:02:00,22.9,19.6,29.88,ENE,70,0.0,0.0,86,0.00,n/a,n/a,-99.99,Henriksen +1-Wire,2013-01-22 01:02:00,
2013-01-21 20:08:00,22.9,19.5,29.87,ENE,71,0.1,0.9,86,0.00,n/a,n/a,-99.99,Henriksen +1-Wire,2013-01-22 01:08:00,
2013-01-21 20:14:00,22.8,19.5,29.87,NE,51,0.0,0.9,86,0.00,n/a,n/a,-99.99,Henriksen +1-Wire,2013-01-22 01:14:00,
2013-01-21 20:20:00,22.8,19.6,29.87,NE,34,0.0,0.6,87,0.00,n/a,n/a,-99.99,Henriksen +1-Wire,2013-01-22 01:20:00,
2013-01-21 20:26:00,22.8,19.5,29.87,NNE,23,0.0,0.0,87,0.00,n/a,n/a,-99.99,Henriksen +1-Wire,2013-01-22 01:26:00,
2013-01-21 20:32:00,23.7,20.4,29.87,NW,318,0.0,0.0,87,0.00,n/a,n/a,-99.99,Henriksen +1-Wire,2013-01-22 01:32:00,
2013-01-21 20:38:00,24.0,20.8,29.87,NW,326,0.6,1.7,87,0.00,n/a,n/a,-99.99,Henriksen +1-Wire,2013-01-22 01:38:00,
2013-01-21 20:44:00,24.1,20.9,29.87,NNW,328,0.9,2.2,87,0.00,n/a,n/a,-99.99,Henriksen +1-Wire,2013-01-22 01:44:00,
2013-01-21 20:50:00,23.8,20.6,29.87,NNW,328,0.0,1.9,87,0.00,n/a,n/a,-99.99,Henriksen +1-Wire,2013-01-22 01:50:00,
2013-01-21 20:56:00,24.0,20.8,29.87,NW,326,0.7,2.2,87,0.00,n/a,n/a,-99.99,Henriksen +1-Wire,2013-01-22 01:56:00,
2013-01-21 21:02:00,24.1,20.9,29.87,NNW,333,0.3,1.9,87,0.00,n/a,n/a,-99.99,Henriksen +1-Wire,2013-01-22 02:02:00,
2013-01-21 21:08:00,24.2,20.9,29.86,NNW,337,0.0,1.7,87,0.00,n/a,n/a,-99.99,Henriksen +1-Wire,2013-01-22 02:08:00,
2013-01-21 21:14:00,24.1,20.9,29.86,WNW,283,0.1,1.0,87,0.00,n/a,n/a,-99.99,Henriksen +1-Wire,2013-01-22 02:14:00,
2013-01-21 21:20:00,24.0,20.8,29.85,WNW,297,0.4,1.3,87,0.00,n/a,n/a,-99.99,Henriksen +1-Wire,2013-01-22 02:20:00,
2013-01-21 21:26:00,24.0,20.7,29.84,WNW,290,0.7,2.5,87,0.00,n/a,n/a,-99.99,Henriksen +1-Wire,2013-01-22 02:26:00,
2013-01-21 21:32:00,24.0,20.7,29.84,WNW,290,0.5,2.3,87,0.00,n/a,n/a,-99.99,Henriksen +1-Wire,2013-01-22 02:32:00,
2013-01-21 21:38:00,23.9,20.6,29.83,WNW,302,1.6,2.9,87,0.00,n/a,n/a,-99.99,Henriksen +1-Wire,2013-01-22 02:38:00,
2013-01-21 21:44:00,23.8,20.6,29.83,NW,324,2.0,4.5,87,0.00,n/a,n/a,-99.99,Henriksen +1-Wire,2013-01-22 02:44:00,
2013-01-21 21:50:00,23.8,20.6,29.83,NNW,329,0.1,4.5,87,0.00,n/a,n/a,-99.99,Henriksen +1-Wire,2013-01-22 02:50:00,
2013-01-21 21:56:00,23.9,20.6,29.84,East,90,1.0,1.9,87,0.00,n/a,n/a,-99.99,Henriksen +1-Wire,2013-01-22 02:56:00,
2013-01-21 22:02:00,24.0,20.7,29.84,SSE,151,0.0,1.9,87,0.00,n/a,n/a,-99.99,Henriksen +1-Wire,2013-01-22 03:02:00,
2013-01-21 22:08:00,24.0,20.8,29.83,SSE,155,0.3,0.6,87,0.00,n/a,n/a,-99.99,Henriksen +1-Wire,2013-01-22 03:08:00,
2013-01-21 22:14:00,24.1,20.8,29.82,SSE,153,0.1,1.3,87,0.00,n/a,n/a,-99.99,Henriksen +1-Wire,2013-01-22 03:14:00,
2013-01-21 22:20:00,24.0,20.6,29.82,SSE,151,0.0,1.3,87,0.00,n/a,n/a,-99.99,Henriksen +1-Wire,2013-01-22 03:20:00,
2013-01-21 22:26:00,24.0,20.5,29.82,NE,39,0.2,2.5,86,0.00,n/a,n/a,-99.99,Henriksen +1-Wire,2013-01-22 03:26:00,
2013-01-21 22:32:00,24.0,20.5,29.81,NW,312,0.1,2.5,86,0.00,n/a,n/a,-99.99,Henriksen +1-Wire,2013-01-22 03:32:00,
2013-01-21 22:38:00,23.8,20.3,29.80,NNW,341,0.0,0.6,86,0.00,n/a,n/a,-99.99,Henriksen +1-Wire,2013-01-22 03:38:00,
2013-01-21 22:44:00,23.7,20.3,29.80,NW,320,0.7,1.7,86,0.00,n/a,n/a,-99.99,Henriksen +1-Wire,2013-01-22 03:44:00,
2013-01-21 22:50:00,23.8,20.3,29.80,WNW,298,0.6,2.9,86,0.00,n/a,n/a,-99.99,Henriksen +1-Wire,2013-01-22 03:50:00,
2013-01-21 22:56:00,23.8,20.4,29.80,WSW,250,0.8,2.9,86,0.00,n/a,n/a,-99.99,Henriksen +1-Wire,2013-01-22 03:56:00,
2013-01-21 23:02:00,23.8,20.3,29.80,NW,312,0.7,1.7,86,0.00,n/a,n/a,-99.99,Henriksen +1-Wire,2013-01-22 04:02:00,
2013-01-21 23:08:00,23.6,20.1,29.79,NW,316,0.9,1.9,86,0.00,n/a,n/a,-99.99,Henriksen +1-Wire,2013-01-22 04:08:00,
2013-01-21 23:14:00,23.5,20.1,29.79,NNW,336,0.5,1.9,86,0.00,n/a,n/a,-99.99,Henriksen +1-Wire,2013-01-22 04:14:00,
2013-01-21 23:20:00,22.7,19.3,29.78,NNW,347,0.1,2.2,86,0.00,n/a,n/a,-99.99,Henriksen +1-Wire,2013-01-22 04:20:00,
2013-01-21 23:26:00,22.4,19.0,29.78,WNW,296,0.1,2.2,86,0.00,n/a,n/a,-99.99,Henriksen +1-Wire,2013-01-22 04:26:00,
2013-01-21 23:32:00,22.6,19.1,29.78,NNW,338,0.3,3.4,86,0.00,n/a,n/a,-99.99,Henriksen +1-Wire,2013-01-22 04:32:00,
2013-01-21 23:38:00,21.8,18.3,29.76,NNW,331,0.7,3.4,86,0.00,n/a,n/a,-99.99,Henriksen +1-Wire,2013-01-22 04:38:00,
2013-01-21 23:44:00,21.5,18.1,29.75,NNW,329,0.8,1.6,86,0.00,n/a,n/a,-99.99,Henriksen +1-Wire,2013-01-22 04:44:00,
2013-01-21 23:50:00,21.4,18.1,29.75,NNW,332,0.1,1.6,87,0.00,n/a,n/a,-99.99,Henriksen +1-Wire,2013-01-22 04:50:00,
2013-01-21 23:56:00,21.4,18.1,29.75,North,350,0.4,1.3,87,0.00,n/a,n/a,-99.99,Henriksen +1-Wire,2013-01-22 04:56:00,